Time;durP1;ratioP1;P1;durP2;ratioP2;P2;SDS_P1;SDS_P2;PMS_P1;PMS_P2;Temp;Humidity;BMP_temperature;BMP_pressure;BME280_temperature;BME280_humidity;BME280_pressure;Samples;Min_cycle;Max_cycle;Signal;HPM_P1;HPM_P2
2022/07/07 00:01:08;;;;;;;13.50;9.10;;;;;;;17.08;82.59;101924.91;4954321;29;20035;-79
2022/07/07 00:03:33;;;;;;;11.47;9.23;;;;;;;17.07;82.74;101930.56;4927042;29;20027;-79
2022/07/07 00:05:59;;;;;;;14.80;9.23;;;;;;;16.95;83.24;101911.34;4932850;29;20028;-78
2022/07/07 00:08:25;;;;;;;16.63;9.27;;;;;;;17.01;82.92;101916.75;4956554;29;20027;-78
2022/07/07 00:10:50;;;;;;;15.27;9.60;;;;;;;17.05;83.37;101919.84;4947963;29;20391;-78
2022/07/07 00:13:16;;;;;;;12.47;9.00;;;;;;;17.02;83.09;101910.19;4956498;29;20082;-79
2022/07/07 00:15:45;;;;;;;12.77;8.97;;;;;;;17.03;82.90;101911.88;4935877;29;20023;-79
2022/07/07 00:18:13;;;;;;;13.40;9.10;;;;;;;17.06;82.94;101907.03;4955027;29;20039;-80
2022/07/07 00:20:58;;;;;;;13.70;9.30;;;;;;;17.07;82.57;101903.19;4950339;29;20039;-79
2022/07/07 00:23:23;;;;;;;13.40;8.80;;;;;;;17.05;83.20;101903.44;4937487;29;20051;-79
2022/07/07 00:25:48;;;;;;;16.33;9.47;;;;;;;17.05;82.86;101900.69;4936949;29;20082;-79
2022/07/07 00:28:14;;;;;;;13.80;9.07;;;;;;;17.06;83.16;101890.59;4951700;29;20400;-79
2022/07/07 00:30:40;;;;;;;14.87;9.83;;;;;;;17.00;83.19;101876.75;4939009;29;20102;-79
2022/07/07 00:33:06;;;;;;;12.50;9.37;;;;;;;17.02;83.26;101880.06;4956325;29;20035;-78
2022/07/07 00:35:31;;;;;;;14.00;9.40;;;;;;;17.01;83.50;101872.09;4940700;29;20049;-78
2022/07/07 00:37:56;;;;;;;13.80;8.60;;;;;;;17.06;83.22;101885.13;4951357;29;20043;-79
2022/07/07 00:40:22;;;;;;;16.50;9.53;;;;;;;17.06;83.12;101875.00;4954959;29;20110;-79
2022/07/07 00:42:48;;;;;;;14.27;9.40;;;;;;;17.06;83.46;101874.16;4955219;29;20094;-79
2022/07/07 00:45:13;;;;;;;14.57;9.80;;;;;;;17.09;83.06;101873.69;4952108;28;20031;-79
2022/07/07 00:47:40;;;;;;;15.20;9.97;;;;;;;16.98;82.94;101856.97;4954929;29;20479;-81
2022/07/07 00:50:06;;;;;;;13.90;9.03;;;;;;;17.09;83.03;101865.47;4939834;29;20106;-79
2022/07/07 00:52:32;;;;;;;13.53;9.60;;;;;;;17.07;83.39;101856.66;4954161;29;20043;-79
2022/07/07 00:55:00;;;;;;;15.83;9.70;;;;;;;17.09;83.24;101851.78;4952445;29;20494;-79
2022/07/07 00:57:26;;;;;;;14.17;9.60;;;;;;;17.08;83.54;101850.97;4933075;29;20035;-79
2022/07/07 00:59:55;;;;;;;15.33;9.17;;;;;;;17.10;83.32;101848.00;4933638;29;20035;-79
2022/07/07 01:02:20;;;;;;;14.53;9.30;;;;;;;17.11;83.01;101852.38;4922028;29;20036;-79
2022/07/07 01:04:46;;;;;;;13.80;9.23;;;;;;;17.12;83.14;101851.31;4947104;29;20047;-79
2022/07/07 01:07:11;;;;;;;13.47;9.23;;;;;;;17.13;82.93;101864.78;4933425;29;20035;-79
2022/07/07 01:09:37;;;;;;;15.17;9.00;;;;;;;17.09;83.58;101846.31;4942045;29;20412;-79
2022/07/07 01:12:03;;;;;;;14.63;9.50;;;;;;;17.09;83.27;101852.63;4942401;29;20043;-78
2022/07/07 01:14:29;;;;;;;14.30;9.43;;;;;;;17.11;83.40;101850.50;4942989;29;20034;-80
2022/07/07 01:16:55;;;;;;;14.37;8.80;;;;;;;17.14;83.02;101857.41;4944198;29;20051;-79
2022/07/07 01:19:22;;;;;;;14.47;8.83;;;;;;;17.18;83.06;101858.63;4943317;29;20070;-79
2022/07/07 01:22:21;;;;;;;13.37;8.93;;;;;;;17.22;82.41;101854.34;4940785;29;20023;-79
2022/07/07 01:24:47;;;;;;;14.80;8.70;;;;;;;17.21;82.87;101858.97;4917066;29;20036;-79
2022/07/07 01:27:13;;;;;;;12.63;8.83;;;;;;;17.21;82.85;101858.97;4951063;29;20380;-78
2022/07/07 01:29:44;;;;;;;14.93;8.70;;;;;;;17.20;83.09;101848.25;4945296;29;20031;-79
2022/07/07 01:32:10;;;;;;;13.27;7.97;;;;;;;17.21;82.98;101849.94;4941065;29;20020;-79
2022/07/07 01:34:37;;;;;;;12.37;7.77;;;;;;;17.24;82.87;101841.25;4940583;29;20082;-78
2022/07/07 01:37:02;;;;;;;12.03;8.33;;;;;;;17.23;83.13;101836.00;4946178;29;20031;-79
2022/07/07 01:39:28;;;;;;;13.07;7.90;;;;;;;17.20;83.35;101831.81;4946064;29;20221;-79
2022/07/07 01:41:53;;;;;;;11.00;8.43;;;;;;;17.19;83.81;101830.19;4941826;29;20490;-79
2022/07/07 01:44:19;;;;;;;13.70;7.77;;;;;;;17.19;83.53;101824.69;4942087;29;20031;-79
2022/07/07 01:46:44;;;;;;;12.17;7.60;;;;;;;17.18;83.50;101821.09;4940477;29;21306;-79
2022/07/07 01:49:10;;;;;;;11.33;7.87;;;;;;;17.18;83.80;101823.84;4946369;29;20035;-79
2022/07/07 01:51:36;;;;;;;15.03;7.87;;;;;;;17.17;83.90;101815.88;4936682;29;20532;-80
2022/07/07 01:54:01;;;;;;;11.50;7.37;;;;;;;17.19;83.87;101825.53;4952406;29;20158;-79
2022/07/07 01:56:27;;;;;;;13.57;7.70;;;;;;;17.18;83.87;101823.03;4941918;29;20023;-79
2022/07/07 01:58:52;;;;;;;11.23;7.70;;;;;;;17.14;83.81;101810.88;4951767;29;20494;-79
2022/07/07 02:01:18;;;;;;;12.97;7.70;;;;;;;17.17;84.09;101821.34;4940393;29;20042;-79
2022/07/07 02:03:43;;;;;;;12.87;7.73;;;;;;;17.17;84.44;101821.34;4953876;29;20031;-79
2022/07/07 02:06:09;;;;;;;14.37;7.50;;;;;;;17.16;84.41;101812.31;4953006;29;20027;-79
2022/07/07 02:08:34;;;;;;;12.07;6.93;;;;;;;17.09;84.38;101797.84;4940818;29;20046;-80
2022/07/07 02:11:15;;;;;;;9.67;6.93;;;;;;;17.19;84.63;101819.22;4927636;29;20498;-81
2022/07/07 02:13:43;;;;;;;9.03;6.70;;;;;;;17.22;84.53;101824.22;4939142;29;20102;-80
2022/07/07 02:16:08;;;;;;;11.07;6.67;;;;;;;17.23;84.36;101814.94;4935767;29;20119;-79
2022/07/07 02:18:36;;;;;;;11.37;6.77;;;;;;;17.21;84.59;101809.69;4936643;29;20472;-82
2022/07/07 02:21:04;;;;;;;11.97;6.60;;;;;;;17.22;84.76;101818.75;4937863;29;20039;-83
2022/07/07 02:23:30;;;;;;;9.43;6.20;;;;;;;17.23;85.04;101817.69;4949103;29;20600;-81
2022/07/07 02:25:55;;;;;;;10.63;5.80;;;;;;;17.20;84.89;101812.66;4940122;29;20567;-79
2022/07/07 02:28:23;;;;;;;9.47;5.40;;;;;;;17.26;84.83;101819.09;4946142;29;20034;-79
2022/07/07 02:30:49;;;;;;;9.63;5.83;;;;;;;17.24;85.08;101813.84;4939491;29;20027;-79
2022/07/07 02:33:14;;;;;;;8.37;5.37;;;;;;;17.28;84.86;101809.59;4936930;29;20388;-79
2022/07/07 02:35:49;;;;;;;11.33;5.73;;;;;;;17.27;84.96;101796.13;4938699;29;20031;-79
2022/07/07 02:38:15;;;;;;;12.17;5.67;;;;;;;17.29;85.06;101803.03;4940088;29;20058;-80
2022/07/07 02:40:41;;;;;;;7.70;4.73;;;;;;;17.32;85.10;101804.47;4938426;29;20134;-83
2022/07/07 02:43:06;;;;;;;10.77;5.03;;;;;;;17.30;84.92;101810.19;4941766;29;20034;-80
2022/07/07 02:45:31;;;;;;;9.00;5.10;;;;;;;17.34;85.09;101816.88;4941322;29;20395;-79
2022/07/07 02:47:57;;;;;;;12.03;5.10;;;;;;;17.32;85.13;101807.22;4935371;29;20070;-79
2022/07/07 02:50:22;;;;;;;9.27;5.30;;;;;;;17.36;85.30;101820.22;4943790;29;20031;-79
2022/07/07 02:52:48;;;;;;;7.90;4.60;;;;;;;17.35;85.79;101813.09;4940151;29;20495;-78
2022/07/07 02:55:13;;;;;;;9.27;4.23;;;;;;;17.36;84.52;101817.47;4953499;29;20035;-78
2022/07/07 02:57:39;;;;;;;8.80;3.97;;;;;;;17.34;84.47;101821.53;4943569;29;20035;-80
2022/07/07 03:00:06;;;;;;;9.47;3.80;;;;;;;17.22;84.67;101821.50;4938974;29;20472;-79
2022/07/07 03:02:31;;;;;;;5.07;3.17;;;;;;;17.18;83.08;101818.38;4942902;29;20031;-81
2022/07/07 03:04:57;;;;;;;3.77;2.63;;;;;;;17.16;81.74;101812.31;4938155;29;20058;-79
2022/07/07 03:07:22;;;;;;;3.70;2.37;;;;;;;17.14;81.26;101816.34;4921345;29;20549;-79
2022/07/07 03:09:48;;;;;;;5.30;2.70;;;;;;;17.12;80.58;101815.72;4924252;29;20465;-79
2022/07/07 03:12:13;;;;;;;5.73;2.60;;;;;;;17.10;80.68;101817.88;4939161;29;20490;-79
2022/07/07 03:14:39;;;;;;;5.37;2.83;;;;;;;17.08;81.75;101820.00;4938475;29;20031;-78
2022/07/07 03:17:04;;;;;;;4.43;2.80;;;;;;;17.02;81.50;101813.53;4937833;29;20035;-78
2022/07/07 03:19:29;;;;;;;8.40;2.90;;;;;;;17.01;82.09;101820.06;4942401;29;20047;-79
2022/07/07 03:21:55;;;;;;;4.33;2.53;;;;;;;16.90;82.93;101810.75;4938396;29;20110;-83
2022/07/07 03:24:20;;;;;;;4.97;2.90;;;;;;;16.87;83.66;101822.97;4941705;29;20046;-79
2022/07/07 03:26:45;;;;;;;4.80;2.90;;;;;;;16.81;85.12;101823.91;4919048;29;20027;-80
2022/07/07 03:29:11;;;;;;;4.93;2.90;;;;;;;16.73;86.41;101817.88;4941244;29;20035;-81
2022/07/07 03:31:36;;;;;;;5.33;3.07;;;;;;;16.62;86.68;101820.34;4938849;29;20126;-80
2022/07/07 03:34:02;;;;;;;8.23;3.03;;;;;;;16.49;87.72;101825.94;4936974;29;20126;-79
2022/07/07 03:36:27;;;;;;;4.73;3.10;;;;;;;16.31;89.10;101813.94;4936633;29;20050;-78
2022/07/07 03:38:53;;;;;;;6.30;3.50;;;;;;;16.26;90.32;101816.50;4938539;29;20042;-81
2022/07/07 03:41:18;;;;;;;4.90;3.20;;;;;;;16.28;89.83;101816.28;4939067;29;20035;-79
2022/07/07 03:43:43;;;;;;;7.87;3.70;;;;;;;16.22;90.73;101814.47;4938691;29;20039;-78
2022/07/07 03:46:09;;;;;;;5.13;3.43;;;;;;;16.18;91.15;101817.66;4938588;29;20035;-80
2022/07/07 03:48:34;;;;;;;6.00;3.10;;;;;;;16.22;89.96;101809.81;4936795;29;20043;-79
2022/07/07 03:51:00;;;;;;;3.40;3.10;;;;;;;16.16;90.50;101816.22;4937921;29;20077;-79
2022/07/07 03:53:25;;;;;;;5.17;3.30;;;;;;;16.14;90.71;101812.84;4936353;29;20035;-78
2022/07/07 03:55:51;;;;;;;5.23;3.50;;;;;;;16.14;91.03;101818.31;4938203;29;20052;-78
2022/07/07 03:58:16;;;;;;;6.03;3.40;;;;;;;16.12;91.44;101817.72;4937766;29;20048;-79
2022/07/07 04:00:41;;;;;;;4.77;3.23;;;;;;;16.15;91.03;101818.09;4936928;29;20038;-80
2022/07/07 04:03:08;;;;;;;4.13;3.30;;;;;;;16.11;91.71;101811.41;4937514;29;20031;-83
2022/07/07 04:05:35;;;;;;;5.73;3.40;;;;;;;16.08;91.85;101820.06;4938272;29;20458;-79
2022/07/07 04:08:00;;;;;;;3.50;3.00;;;;;;;16.07;92.20;101812.09;4938318;29;20174;-78
2022/07/07 04:10:25;;;;;;;4.73;3.40;;;;;;;16.00;92.91;101801.22;4923871;29;20150;-79
2022/07/07 04:12:51;;;;;;;6.33;3.57;;;;;;;16.00;93.59;101802.03;4938849;29;20051;-80
2022/07/07 04:15:16;;;;;;;4.93;3.37;;;;;;;15.97;93.74;101799.75;4952771;29;20484;-78
2022/07/07 04:17:41;;;;;;;6.67;3.97;;;;;;;15.93;94.24;101794.97;4935395;29;20039;-80
2022/07/07 04:20:08;;;;;;;4.83;3.30;;;;;;;15.92;94.31;101794.13;4933098;29;20089;-79
2022/07/07 04:22:33;;;;;;;7.10;4.03;;;;;;;15.88;94.53;101790.16;4934606;29;20039;-78
2022/07/07 04:24:58;;;;;;;6.27;3.47;;;;;;;15.89;94.89;101793.75;4933704;29;20048;-78
2022/07/07 04:27:24;;;;;;;6.23;3.90;;;;;;;15.88;95.15;101790.16;4933882;29;20078;-79
2022/07/07 04:29:49;;;;;;;5.67;3.90;;;;;;;15.90;95.08;101789.94;4933455;29;20115;-80
2022/07/07 04:32:14;;;;;;;4.57;3.57;;;;;;;15.94;95.07;101796.63;4934009;29;20126;-78
2022/07/07 04:34:40;;;;;;;6.73;4.27;;;;;;;15.83;95.95;101793.59;4933953;29;20031;-78
2022/07/07 04:37:05;;;;;;;7.47;4.50;;;;;;;15.86;96.82;101803.25;4933759;29;20640;-80
2022/07/07 04:39:30;;;;;;;7.17;4.90;;;;;;;15.79;98.11;101813.34;4934039;29;20692;-81
2022/07/07 04:41:56;;;;;;;6.33;4.23;;;;;;;15.78;98.10;101822.63;4934159;29;20085;-80
2022/07/07 04:44:22;;;;;;;6.57;4.23;;;;;;;15.67;98.69;101818.72;4934021;29;20431;-80
2022/07/07 04:46:47;;;;;;;6.57;3.70;;;;;;;15.65;99.50;101834.47;4934356;29;21254;-81
2022/07/07 04:49:12;;;;;;;4.60;3.60;;;;;;;15.59;100.00;101828.00;4933605;29;20047;-80
2022/07/07 04:51:38;;;;;;;5.17;3.90;;;;;;;15.63;100.00;101842.06;4933330;29;20050;-80
2022/07/07 04:54:03;;;;;;;7.07;4.10;;;;;;;15.60;100.00;101835.16;4936296;29;20047;-80
2022/07/07 04:56:29;;;;;;;5.00;4.20;;;;;;;15.53;100.00;101823.44;4933974;29;20791;-79
2022/07/07 04:58:55;;;;;;;6.27;3.77;;;;;;;15.57;100.00;101841.06;4919880;29;20053;-81
2022/07/07 05:01:21;;;;;;;5.53;3.00;;;;;;;15.48;100.00;101834.19;4932604;29;20050;-81
2022/07/07 05:03:46;;;;;;;7.47;3.10;;;;;;;15.50;100.00;101842.97;4933253;29;20300;-81
2022/07/07 05:06:13;;;;;;;7.00;3.10;;;;;;;15.48;100.00;101837.75;4933396;29;20035;-80
2022/07/07 05:08:38;;;;;;;5.70;2.90;;;;;;;15.48;100.00;101843.19;4933853;29;20093;-79
2022/07/07 05:11:04;;;;;;;5.73;2.83;;;;;;;15.47;100.00;101846.97;4933870;29;20520;-80
2022/07/07 05:13:29;;;;;;;5.70;2.67;;;;;;;15.49;100.00;101854.94;4933686;29;20074;-79
2022/07/07 05:15:55;;;;;;;10.40;2.70;;;;;;;15.47;100.00;101857.09;4933532;29;20440;-80
2022/07/07 05:18:21;;;;;;;5.00;2.40;;;;;;;15.48;99.95;101850.56;4933309;29;20311;-82
2022/07/07 05:20:47;;;;;;;6.23;2.43;;;;;;;15.46;100.00;101855.41;4933818;29;20865;-80
2022/07/07 05:23:12;;;;;;;8.87;2.50;;;;;;;15.46;100.00;101866.31;4933116;29;20039;-80
2022/07/07 05:25:37;;;;;;;4.07;2.13;;;;;;;15.46;99.88;101872.66;4933263;29;20060;-80
2022/07/07 05:28:03;;;;;;;6.80;2.33;;;;;;;15.50;99.25;101873.88;4932837;29;20051;-79
2022/07/07 05:30:28;;;;;;;5.13;2.30;;;;;;;15.47;98.72;101857.91;4932484;29;20182;-81
2022/07/07 05:32:54;;;;;;;8.10;2.37;;;;;;;15.56;97.98;101860.38;4932844;29;20038;-79
2022/07/07 05:35:20;;;;;;;5.57;2.17;;;;;;;15.53;98.36;101865.22;4933125;29;20134;-80
2022/07/07 05:37:46;;;;;;;10.03;2.40;;;;;;;15.55;98.16;101864.19;4933105;29;20364;-80
2022/07/07 05:40:12;;;;;;;5.80;2.20;;;;;;;15.63;97.94;101881.13;4932775;29;20046;-81
2022/07/07 05:42:38;;;;;;;6.37;2.37;;;;;;;15.63;97.18;101878.41;4933164;29;20035;-79
2022/07/07 05:45:03;;;;;;;7.53;2.40;;;;;;;15.66;98.09;101877.97;4932569;29;20497;-80
2022/07/07 05:47:29;;;;;;;6.80;2.27;;;;;;;15.65;98.05;101886.38;4932730;29;20046;-79
2022/07/07 05:49:54;;;;;;;8.53;2.40;;;;;;;15.65;97.52;101905.50;4919058;29;20035;-80
2022/07/07 05:52:20;;;;;;;9.53;2.20;;;;;;;15.63;97.98;101903.00;4933120;29;20035;-80
2022/07/07 05:54:45;;;;;;;8.97;2.50;;;;;;;15.60;98.74;101916.25;4932991;29;20400;-81
2022/07/07 05:57:10;;;;;;;13.80;2.73;;;;;;;15.60;100.00;101916.25;4919256;29;20109;-82
2022/07/07 05:59:36;;;;;;;9.00;2.90;;;;;;;15.50;100.00;101908.53;4919021;29;20043;-81
2022/07/07 06:02:01;;;;;;;9.13;2.63;;;;;;;15.31;100.00;101930.28;4920229;29;20130;-83
2022/07/07 06:04:26;;;;;;;9.37;2.80;;;;;;;15.28;100.00;101917.03;4932553;29;20464;-81
2022/07/07 06:06:52;;;;;;;10.07;2.90;;;;;;;15.26;100.00;101926.50;4932691;29;20031;-83
2022/07/07 06:09:18;;;;;;;8.87;2.57;;;;;;;15.28;100.00;101925.22;4919058;29;20038;-85
2022/07/07 06:11:44;;;;;;;13.90;2.60;;;;;;;15.32;100.00;101937.38;4932223;29;20059;-82
2022/07/07 06:14:10;;;;;;;8.33;2.50;;;;;;;15.31;100.00;101926.69;4932401;29;20039;-83
2022/07/07 06:16:38;;;;;;;10.47;2.50;;;;;;;15.33;99.42;101955.47;4932152;29;20039;-83
2022/07/07 06:19:12;;;;;;;9.87;2.27;;;;;;;15.37;97.79;101950.41;4932505;29;20043;-82
2022/07/07 06:21:38;;;;;;;11.23;2.20;;;;;;;15.35;97.33;101945.16;4932611;29;20095;-81
2022/07/07 06:24:05;;;;;;;8.90;2.10;;;;;;;15.36;97.53;101946.81;4931805;29;20403;-82
2022/07/07 06:26:30;;;;;;;11.33;2.40;;;;;;;15.43;95.52;101965.09;4932110;29;20043;-83
2022/07/07 06:28:55;;;;;;;10.17;2.30;;;;;;;15.42;94.68;101967.00;4932142;29;20054;-82
2022/07/07 06:31:21;;;;;;;9.23;2.13;;;;;;;15.46;94.13;101970.09;4932107;29;20067;-81
2022/07/07 06:33:46;;;;;;;11.60;2.20;;;;;;;15.49;93.82;101972.41;4928663;29;20711;-80
2022/07/07 06:36:12;;;;;;;12.80;2.33;;;;;;;15.55;93.46;101962.53;4932011;29;20039;-81
2022/07/07 06:38:37;;;;;;;13.33;2.60;;;;;;;15.59;91.03;101970.06;4932575;29;20498;-83
2022/07/07 06:41:41;;;;;;;9.90;2.17;;;;;;;15.65;90.61;101979.25;4933424;29;20166;-80
2022/07/07 06:44:07;;;;;;;8.60;2.17;;;;;;;15.70;90.94;101984.91;4939040;29;20059;-82
2022/07/07 06:46:32;;;;;;;10.50;2.10;;;;;;;15.72;88.70;102001.09;4934751;29;20046;-84
2022/07/07 06:48:58;;;;;;;10.00;1.90;;;;;;;15.71;89.63;102003.00;4935207;29;20031;-82
2022/07/07 06:51:23;;;;;;;11.23;1.90;;;;;;;15.58;89.72;101995.69;4934898;29;20043;-82
2022/07/07 06:53:49;;;;;;;9.73;1.70;;;;;;;15.48;88.10;101998.88;4904834;29;20065;-82
2022/07/07 06:56:15;;;;;;;6.93;1.60;;;;;;;15.39;86.48;101999.34;4934787;29;20042;-80
2022/07/07 06:58:41;;;;;;;10.17;1.50;;;;;;;15.52;86.11;102002.84;4934924;29;20043;-80
2022/07/07 07:01:06;;;;;;;8.07;1.50;;;;;;;15.69;85.63;101996.88;4934368;29;20267;-81
2022/07/07 07:03:32;;;;;;;4.73;1.27;;;;;;;15.68;85.28;101997.97;4935221;29;20043;-80
2022/07/07 07:05:57;;;;;;;5.30;1.47;;;;;;;15.62;84.34;102010.59;4938103;29;20209;-80
2022/07/07 07:08:23;;;;;;;5.10;1.60;;;;;;;15.64;85.42;102011.22;4934744;29;20130;-79
2022/07/07 07:10:49;;;;;;;7.37;1.80;;;;;;;15.67;85.08;102018.97;4934152;29;20058;-79
2022/07/07 07:13:14;;;;;;;9.17;1.83;;;;;;;15.77;86.01;102009.47;4934091;29;20599;-80
2022/07/07 07:15:39;;;;;;;6.40;1.60;;;;;;;16.00;85.50;102003.50;4922048;29;20622;-81
2022/07/07 07:18:06;;;;;;;6.90;2.00;;;;;;;16.15;85.00;102020.41;4921566;29;20625;-79
2022/07/07 07:20:32;;;;;;;6.57;1.77;;;;;;;16.21;83.23;102005.03;4902278;29;20484;-81
2022/07/07 07:22:57;;;;;;;7.77;1.80;;;;;;;16.32;83.85;102012.53;4934286;29;20047;-81
2022/07/07 07:25:23;;;;;;;7.87;1.80;;;;;;;16.51;83.60;102015.34;4916157;29;20065;-81
2022/07/07 07:27:49;;;;;;;6.77;1.60;;;;;;;16.68;83.82;102013.69;4934326;29;20061;-82
2022/07/07 07:30:14;;;;;;;4.50;1.70;;;;;;;16.78;81.72;102023.28;4933458;29;20126;-81
2022/07/07 07:32:40;;;;;;;6.33;1.50;;;;;;;16.85;83.08;102035.03;4938057;29;20110;-80
2022/07/07 07:35:06;;;;;;;7.53;1.63;;;;;;;16.85;83.24;102037.78;4933654;29;20043;-80
2022/07/07 07:37:31;;;;;;;6.53;1.60;;;;;;;16.70;82.03;102036.22;4937357;29;20078;-82
2022/07/07 07:39:57;;;;;;;7.30;2.00;;;;;;;16.50;82.45;102041.00;4933929;29;20043;-79
2022/07/07 07:42:22;;;;;;;6.60;2.00;;;;;;;16.46;82.79;102057.03;4934224;29;20043;-79
2022/07/07 07:47:31;;;;;;;4.90;1.40;;;;;;;16.41;83.83;102053.28;4933815;29;20786;-79
2022/07/07 07:49:57;;;;;;;4.53;1.73;;;;;;;16.52;85.48;102050.66;4920718;29;20052;-79
2022/07/07 07:52:22;;;;;;;4.87;1.90;;;;;;;16.60;83.75;102049.53;4921729;29;20094;-79
2022/07/07 07:54:48;;;;;;;4.87;1.73;;;;;;;16.58;81.79;102048.94;4933434;28;20126;-80
2022/07/07 07:57:13;;;;;;;4.63;1.60;;;;;;;16.55;81.46;102041.19;4933964;29;20637;-78
2022/07/07 07:59:38;;;;;;;8.03;1.63;;;;;;;16.68;82.56;102056.66;4949680;29;20101;-79
2022/07/07 08:02:04;;;;;;;10.83;2.10;;;;;;;16.77;81.79;102055.31;4943286;29;20144;-81
2022/07/07 08:04:29;;;;;;;6.07;1.80;;;;;;;16.81;81.29;102051.06;4943355;29;20039;-80
2022/07/07 08:06:54;;;;;;;11.17;2.07;;;;;;;16.70;80.28;102046.31;4916571;29;20027;-79
2022/07/07 08:09:20;;;;;;;6.87;1.73;;;;;;;16.69;81.47;102050.94;4951841;29;20086;-78
2022/07/07 08:11:46;;;;;;;6.77;2.10;;;;;;;16.44;81.96;102042.75;4938867;29;20051;-79
2022/07/07 08:14:11;;;;;;;7.80;2.00;;;;;;;16.32;83.63;102067.22;4956217;29;20046;-82
2022/07/07 08:16:36;;;;;;;6.53;1.90;;;;;;;16.22;84.82;102083.25;4940164;29;20039;-78
2022/07/07 08:19:02;;;;;;;6.20;1.70;;;;;;;16.00;85.33;102080.03;4954627;29;20352;-78
2022/07/07 08:21:27;;;;;;;8.43;1.83;;;;;;;15.78;85.74;102087.66;4947721;29;20476;-77
2022/07/07 08:23:53;;;;;;;7.67;1.73;;;;;;;15.58;88.24;102093.19;4939295;29;20094;-78
2022/07/07 08:26:18;;;;;;;6.37;1.50;;;;;;;15.61;87.70;102090.03;4944098;29;20584;-78
2022/07/07 08:28:43;;;;;;;5.67;1.27;;;;;;;15.61;85.99;102096.34;4941035;29;20472;-78
2022/07/07 08:31:09;;;;;;;5.40;1.30;;;;;;;15.46;87.59;102084.81;4942070;29;20388;-78
2022/07/07 08:33:35;;;;;;;3.40;1.17;;;;;;;15.52;85.94;102097.63;4937845;29;20032;-78
2022/07/07 08:36:00;;;;;;;2.93;1.20;;;;;;;15.52;86.15;102098.47;4918320;29;20024;-80
2022/07/07 08:38:26;;;;;;;4.03;0.97;;;;;;;15.55;86.80;102088.16;4944951;29;20028;-79
2022/07/07 08:40:51;;;;;;;4.77;1.40;;;;;;;15.60;87.42;102097.41;4940766;29;20043;-81
2022/07/07 08:43:18;;;;;;;4.70;1.37;;;;;;;15.68;86.55;102086.22;4956353;29;20050;-78
2022/07/07 08:45:44;;;;;;;3.40;1.13;;;;;;;15.81;85.67;102081.78;4939492;29;20086;-80
2022/07/07 08:48:09;;;;;;;4.03;1.20;;;;;;;15.89;84.89;102091.66;4949761;29;20031;-78
2022/07/07 08:50:38;;;;;;;4.73;1.50;;;;;;;15.98;84.78;102085.72;4945542;29;20045;-79
2022/07/07 08:53:04;;;;;;;9.33;1.93;;;;;;;16.08;83.39;102098.06;4954559;29;20106;-79
2022/07/07 08:55:32;;;;;;;8.07;1.60;;;;;;;16.29;82.72;102099.63;4956048;29;20420;-79
2022/07/07 08:57:59;;;;;;;4.90;1.53;;;;;;;16.75;84.99;102097.63;4948474;29;20049;-78
2022/07/07 09:00:24;;;;;;;4.37;1.50;;;;;;;17.18;81.88;102092.22;4923721;29;20069;-80
2022/07/07 09:02:50;;;;;;;6.20;1.70;;;;;;;17.32;79.01;102103.06;4950215;29;20455;-82
2022/07/07 09:05:15;;;;;;;4.30;1.90;;;;;;;17.46;77.69;102104.59;4932400;28;20394;-79
2022/07/07 09:07:50;;;;;;;5.17;1.50;;;;;;;17.57;76.09;102111.22;4933988;29;20051;-80
2022/07/07 09:10:31;;;;;;;5.27;1.27;;;;;;;17.58;76.33;102112.88;4933176;29;20046;-81
2022/07/07 09:12:57;;;;;;;5.13;1.60;;;;;;;17.50;76.98;102107.69;4933560;29;20055;-82
2022/07/07 09:15:22;;;;;;;7.37;1.87;;;;;;;17.43;75.68;102117.91;4933144;29;20043;-80
2022/07/07 09:17:49;;;;;;;4.50;1.43;;;;;;;17.26;75.61;102121.22;4933408;29;20053;-81
2022/07/07 09:20:14;;;;;;;6.23;1.60;;;;;;;17.21;77.95;102124.63;4929675;29;20039;-79
2022/07/07 09:22:58;;;;;;;7.20;1.60;;;;;;;17.20;78.35;102124.84;4915988;29;20039;-79
2022/07/07 09:25:27;;;;;;;6.90;1.50;;;;;;;17.09;78.87;102125.59;4931609;29;20040;-79
2022/07/07 09:28:06;;;;;;;8.90;1.67;;;;;;;16.96;78.36;102132.88;4920496;29;20027;-79
2022/07/07 09:30:35;;;;;;;7.90;1.40;;;;;;;16.84;79.16;102145.56;4932134;29;20032;-80
2022/07/07 09:33:03;;;;;;;5.40;1.57;;;;;;;16.68;79.52;102134.09;4932836;29;20413;-80
2022/07/07 09:38:17;;;;;;;10.63;1.53;;;;;;;16.54;79.76;102159.88;4933071;29;20054;-80
2022/07/07 09:41:08;;;;;;;6.67;1.27;;;;;;;16.66;79.79;102160.84;4919277;29;20086;-80
2022/07/07 09:43:53;;;;;;;8.40;1.63;;;;;;;16.81;80.71;102157.81;4932336;29;20428;-82
2022/07/07 09:46:23;;;;;;;7.13;1.50;;;;;;;16.93;79.05;102154.38;4932155;29;20686;-79
2022/07/07 09:48:50;;;;;;;5.13;1.40;;;;;;;17.23;80.40;102162.78;4932666;29;20238;-82
2022/07/07 09:51:24;;;;;;;7.67;1.40;;;;;;;17.44;80.11;102171.66;4932574;29;20089;-79
2022/07/07 09:54:00;;;;;;;;;;;;;;;17.63;78.43;102164.28;4932845;29;20034;-80
2022/07/07 09:56:29;;;;;;;6.40;1.50;;;;;;;17.66;76.97;102161.91;4932701;29;19927;-79
2022/07/07 09:58:55;;;;;;;6.30;1.60;;;;;;;17.67;76.17;102166.34;4932799;29;20483;-80
2022/07/07 10:01:24;;;;;;;3.20;1.20;;;;;;;17.80;78.09;102172.72;4919392;29;20043;-80
2022/07/07 10:03:53;;;;;;;3.90;1.30;;;;;;;17.69;76.29;102180.66;4932203;29;20063;-79
2022/07/07 10:06:19;;;;;;;4.80;1.70;;;;;;;17.58;76.82;102186.88;4932811;29;20047;-80
2022/07/07 10:08:45;;;;;;;3.47;0.90;;;;;;;17.48;76.22;102190.13;4932404;29;20129;-82
2022/07/07 10:11:16;;;;;;;3.03;0.90;;;;;;;17.27;76.79;102201.50;4932485;29;20056;-80
2022/07/07 10:13:44;;;;;;;2.83;0.90;;;;;;;17.03;78.73;102199.38;4933883;29;20035;-80
2022/07/07 10:16:10;;;;;;;3.17;1.07;;;;;;;16.93;80.06;102207.25;4941279;29;20368;-79
2022/07/07 10:18:35;;;;;;;3.83;0.93;;;;;;;16.87;80.26;102205.34;4955713;29;20031;-77
2022/07/07 10:21:02;;;;;;;3.93;1.33;;;;;;;16.81;81.04;102217.16;4957116;29;20114;-77
2022/07/07 10:23:29;;;;;;;2.73;1.30;;;;;;;16.75;82.46;102223.53;4958008;29;20035;-78
2022/07/07 10:26:05;;;;;;;4.93;1.40;;;;;;;16.74;82.85;102224.59;4953541;29;20071;-77
2022/07/07 10:29:03;;;;;;;4.93;1.43;;;;;;;16.85;83.63;102223.91;4951700;29;20031;-77
2022/07/07 10:31:30;;;;;;;3.70;1.37;;;;;;;16.93;83.95;102234.63;4920569;29;20106;-78
2022/07/07 10:34:05;;;;;;;5.70;1.73;;;;;;;17.28;83.78;102222.34;4951237;29;20063;-79
2022/07/07 10:36:45;;;;;;;4.07;1.80;;;;;;;17.50;83.30;102231.88;4932941;29;20359;-79
2022/07/07 10:39:12;;;;;;;2.53;1.73;;;;;;;17.44;81.22;102221.78;4957552;29;20042;-78
2022/07/07 10:41:40;;;;;;;3.93;1.80;;;;;;;17.53;81.14;102233.31;4951756;29;20455;-78
2022/07/07 10:44:06;;;;;;;6.30;1.90;;;;;;;17.57;82.13;102223.59;4939500;29;20115;-77
2022/07/07 10:46:34;;;;;;;3.93;1.87;;;;;;;17.62;81.30;102240.16;4941778;29;20042;-78
2022/07/07 10:49:11;;;;;;;4.57;1.93;;;;;;;17.65;80.91;102234.25;4958955;29;20019;-78
2022/07/07 10:51:54;;;;;;;4.93;1.90;;;;;;;17.67;80.91;102231.28;4955873;29;20035;-78
2022/07/07 10:54:35;;;;;;;4.87;1.80;;;;;;;17.75;79.17;102243.84;4924998;29;20126;-78
2022/07/07 10:57:00;;;;;;;6.53;1.70;;;;;;;17.79;79.86;102245.06;4945069;29;20059;-78
2022/07/07 10:59:27;;;;;;;6.43;1.93;;;;;;;17.70;81.68;102253.59;4955510;29;20123;-78
2022/07/07 11:02:01;;;;;;;4.60;1.80;;;;;;;17.55;83.90;102272.28;4928270;29;20043;-80
2022/07/07 11:04:41;;;;;;;2.97;1.70;;;;;;;17.47;83.55;102264.34;4936134;29;20065;-80
2022/07/07 11:07:17;;;;;;;6.10;1.83;;;;;;;17.33;84.00;102269.09;4935412;29;20069;-79
2022/07/07 11:10:06;;;;;;;4.40;1.70;;;;;;;17.19;83.31;102265.63;4936214;29;20050;-81
2022/07/07 11:12:41;;;;;;;4.47;1.50;;;;;;;17.04;83.66;102269.50;4934980;29;20059;-79
2022/07/07 11:15:15;;;;;;;3.57;1.70;;;;;;;17.08;84.44;102277.25;4931454;29;20039;-81
2022/07/07 11:17:45;;;;;;;3.70;1.63;;;;;;;17.13;82.93;102280.19;4929535;29;20048;-81
2022/07/07 11:20:16;;;;;;;3.67;1.97;;;;;;;17.19;84.54;102280.16;4928184;29;20596;-80
2022/07/07 11:22:47;;;;;;;6.53;2.30;;;;;;;17.34;83.41;102285.31;4929069;29;20448;-81
2022/07/07 11:25:14;;;;;;;8.63;2.10;;;;;;;17.41;83.21;102288.00;4928912;29;20043;-81
2022/07/07 11:27:39;;;;;;;4.50;2.20;;;;;;;17.52;83.72;102297.41;4928762;28;20392;-79